sensor_id;sensor_type;location;lat;lon;timestamp;pressure;altitude;pressure_sealevel;temperature
34023;BMP280;20673;48.980;8.138;2022-10-17T00:02:08;100555.59;;;12.49
34023;BMP280;20673;48.980;8.138;2022-10-17T00:04:34;100554.48;;;12.51
34023;BMP280;20673;48.980;8.138;2022-10-17T00:07:00;100557.70;;;12.49
34023;BMP280;20673;48.980;8.138;2022-10-17T00:09:27;100559.43;;;12.47
34023;BMP280;20673;48.980;8.138;2022-10-17T00:11:53;100570.43;;;12.43
34023;BMP280;20673;48.980;8.138;2022-10-17T00:14:19;100574.84;;;12.40
34023;BMP280;20673;48.980;8.138;2022-10-17T00:16:45;100579.48;;;12.38
34023;BMP280;20673;48.980;8.138;2022-10-17T00:19:11;100584.57;;;12.35
34023;BMP280;20673;48.980;8.138;2022-10-17T00:21:37;100586.73;;;12.35
34023;BMP280;20673;48.980;8.138;2022-10-17T00:24:04;100585.47;;;12.38
34023;BMP280;20673;48.980;8.138;2022-10-17T00:26:31;100586.01;;;12.37
34023;BMP280;20673;48.980;8.138;2022-10-17T00:28:58;100591.58;;;12.36
34023;BMP280;20673;48.980;8.138;2022-10-17T00:31:24;100592.18;;;12.37
34023;BMP280;20673;48.980;8.138;2022-10-17T00:33:51;100595.59;;;12.33
34023;BMP280;20673;48.980;8.138;2022-10-17T00:36:22;100595.04;;;12.30
34023;BMP280;20673;48.980;8.138;2022-10-17T00:38:53;100595.14;;;12.27
34023;BMP280;20673;48.980;8.138;2022-10-17T00:41:24;100603.29;;;12.28
34023;BMP280;20673;48.980;8.138;2022-10-17T00:46:27;100601.84;;;12.22
34023;BMP280;20673;48.980;8.138;2022-10-17T00:48:55;100595.43;;;12.22
34023;BMP280;20673;48.980;8.138;2022-10-17T00:51:27;100590.93;;;12.17
34023;BMP280;20673;48.980;8.138;2022-10-17T00:53:55;100588.33;;;12.15
34023;BMP280;20673;48.980;8.138;2022-10-17T00:56:22;100588.43;;;12.13
34023;BMP280;20673;48.980;8.138;2022-10-17T00:58:48;100585.51;;;12.10
34023;BMP280;20673;48.980;8.138;2022-10-17T01:01:15;100588.60;;;12.08
34023;BMP280;20673;48.980;8.138;2022-10-17T01:03:41;100586.25;;;12.07
34023;BMP280;20673;48.980;8.138;2022-10-17T01:06:07;100591.61;;;12.05
34023;BMP280;20673;48.980;8.138;2022-10-17T01:08:34;100595.73;;;12.06
34023;BMP280;20673;48.980;8.138;2022-10-17T01:11:44;100597.98;;;12.04
34023;BMP280;20673;48.980;8.138;2022-10-17T01:17:23;100598.30;;;11.97
34023;BMP280;20673;48.980;8.138;2022-10-17T01:20:21;100611.10;;;11.98
34023;BMP280;20673;48.980;8.138;2022-10-17T01:22:48;100611.06;;;11.98
34023;BMP280;20673;48.980;8.138;2022-10-17T01:28:37;100610.31;;;12.01
34023;BMP280;20673;48.980;8.138;2022-10-17T01:31:19;100612.59;;;12.03
34023;BMP280;20673;48.980;8.138;2022-10-17T01:34:07;100609.25;;;12.05
34023;BMP280;20673;48.980;8.138;2022-10-17T01:39:43;100596.32;;;12.06
34023;BMP280;20673;48.980;8.138;2022-10-17T01:42:36;100599.18;;;12.08
34023;BMP280;20673;48.980;8.138;2022-10-17T01:45:36;100607.12;;;12.05
34023;BMP280;20673;48.980;8.138;2022-10-17T01:48:06;100602.48;;;12.04
34023;BMP280;20673;48.980;8.138;2022-10-17T01:50:37;100603.78;;;12.01
34023;BMP280;20673;48.980;8.138;2022-10-17T01:53:15;100608.29;;;12.00
34023;BMP280;20673;48.980;8.138;2022-10-17T01:55:45;100600.14;;;11.97
34023;BMP280;20673;48.980;8.138;2022-10-17T01:58:17;100601.74;;;11.96
34023;BMP280;20673;48.980;8.138;2022-10-17T02:00:45;100602.29;;;11.94
34023;BMP280;20673;48.980;8.138;2022-10-17T02:03:16;100614.17;;;11.92
34023;BMP280;20673;48.980;8.138;2022-10-17T02:05:45;100605.11;;;11.90
34023;BMP280;20673;48.980;8.138;2022-10-17T02:08:12;100601.59;;;11.86
34023;BMP280;20673;48.980;8.138;2022-10-17T02:16:42;100595.65;;;11.79
34023;BMP280;20673;48.980;8.138;2022-10-17T02:19:37;100595.72;;;11.78
34023;BMP280;20673;48.980;8.138;2022-10-17T02:25:11;100595.14;;;11.72
34023;BMP280;20673;48.980;8.138;2022-10-17T02:28:27;100599.12;;;11.68
34023;BMP280;20673;48.980;8.138;2022-10-17T02:30:28;100594.36;;;11.67
34023;BMP280;20673;48.980;8.138;2022-10-17T02:33:05;100597.65;;;11.65
34023;BMP280;20673;48.980;8.138;2022-10-17T02:35:37;100603.36;;;11.63
34023;BMP280;20673;48.980;8.138;2022-10-17T02:38:07;100603.47;;;11.61
34023;BMP280;20673;48.980;8.138;2022-10-17T02:40:36;100603.48;;;11.60
34023;BMP280;20673;48.980;8.138;2022-10-17T02:43:04;100604.81;;;11.57
34023;BMP280;20673;48.980;8.138;2022-10-17T02:45:33;100604.98;;;11.53
34023;BMP280;20673;48.980;8.138;2022-10-17T02:48:15;100600.37;;;11.54
34023;BMP280;20673;48.980;8.138;2022-10-17T02:50:51;100601.95;;;11.51
34023;BMP280;20673;48.980;8.138;2022-10-17T02:56:13;100605.29;;;11.49
34023;BMP280;20673;48.980;8.138;2022-10-17T02:58:40;100606.12;;;11.44
34023;BMP280;20673;48.980;8.138;2022-10-17T03:01:08;100605.61;;;11.39
34023;BMP280;20673;48.980;8.138;2022-10-17T03:03:34;100608.65;;;11.34
34023;BMP280;20673;48.980;8.138;2022-10-17T03:06:01;100606.29;;;11.35
34023;BMP280;20673;48.980;8.138;2022-10-17T03:08:27;100605.67;;;11.33
34023;BMP280;20673;48.980;8.138;2022-10-17T03:10:53;100602.12;;;11.29
34023;BMP280;20673;48.980;8.138;2022-10-17T03:13:19;100609.85;;;11.27
34023;BMP280;20673;48.980;8.138;2022-10-17T03:15:46;100608.14;;;11.22
34023;BMP280;20673;48.980;8.138;2022-10-17T03:18:12;100609.43;;;11.17
34023;BMP280;20673;48.980;8.138;2022-10-17T03:20:38;100615.94;;;11.17
34023;BMP280;20673;48.980;8.138;2022-10-17T03:23:05;100613.33;;;11.18
34023;BMP280;20673;48.980;8.138;2022-10-17T03:25:31;100614.80;;;11.14
34023;BMP280;20673;48.980;8.138;2022-10-17T03:27:58;100619.95;;;11.15
34023;BMP280;20673;48.980;8.138;2022-10-17T03:30:28;100621.40;;;11.13
34023;BMP280;20673;48.980;8.138;2022-10-17T03:32:54;100626.24;;;11.12
34023;BMP280;20673;48.980;8.138;2022-10-17T03:35:22;100624.13;;;11.08
34023;BMP280;20673;48.980;8.138;2022-10-17T03:37:48;100626.33;;;11.08
34023;BMP280;20673;48.980;8.138;2022-10-17T03:40:14;100629.17;;;11.02
34023;BMP280;20673;48.980;8.138;2022-10-17T03:42:41;100623.59;;;11.00
34023;BMP280;20673;48.980;8.138;2022-10-17T03:45:07;100628.25;;;10.98
34023;BMP280;20673;48.980;8.138;2022-10-17T03:47:34;100630.83;;;10.99
34023;BMP280;20673;48.980;8.138;2022-10-17T03:50:00;100626.93;;;10.96
34023;BMP280;20673;48.980;8.138;2022-10-17T03:52:26;100627.35;;;10.92
34023;BMP280;20673;48.980;8.138;2022-10-17T03:54:53;100629.81;;;10.89
34023;BMP280;20673;48.980;8.138;2022-10-17T03:57:19;100626.67;;;10.87
34023;BMP280;20673;48.980;8.138;2022-10-17T03:59:45;100633.43;;;10.85
34023;BMP280;20673;48.980;8.138;2022-10-17T04:02:11;100634.89;;;10.83
34023;BMP280;20673;48.980;8.138;2022-10-17T04:04:38;100636.42;;;10.82
34023;BMP280;20673;48.980;8.138;2022-10-17T04:07:04;100641.08;;;10.81
34023;BMP280;20673;48.980;8.138;2022-10-17T04:09:30;100636.65;;;10.80
34023;BMP280;20673;48.980;8.138;2022-10-17T04:11:57;100641.02;;;10.78
34023;BMP280;20673;48.980;8.138;2022-10-17T04:14:23;100637.82;;;10.76
34023;BMP280;20673;48.980;8.138;2022-10-17T04:16:49;100644.09;;;10.74
34023;BMP280;20673;48.980;8.138;2022-10-17T04:19:16;100641.37;;;10.73
34023;BMP280;20673;48.980;8.138;2022-10-17T04:21:42;100640.25;;;10.73
34023;BMP280;20673;48.980;8.138;2022-10-17T04:24:10;100645.50;;;10.75
34023;BMP280;20673;48.980;8.138;2022-10-17T04:26:37;100645.65;;;10.73
34023;BMP280;20673;48.980;8.138;2022-10-17T04:29:03;100651.58;;;10.72
34023;BMP280;20673;48.980;8.138;2022-10-17T04:31:29;100648.51;;;10.70
34023;BMP280;20673;48.980;8.138;2022-10-17T04:33:55;100656.92;;;10.69
34023;BMP280;20673;48.980;8.138;2022-10-17T04:36:22;100653.70;;;10.69
34023;BMP280;20673;48.980;8.138;2022-10-17T04:38:48;100652.66;;;10.66
34023;BMP280;20673;48.980;8.138;2022-10-17T04:41:17;100661.73;;;10.65
34023;BMP280;20673;48.980;8.138;2022-10-17T04:43:44;100666.23;;;10.64
34023;BMP280;20673;48.980;8.138;2022-10-17T04:46:13;100665.37;;;10.62
34023;BMP280;20673;48.980;8.138;2022-10-17T04:48:40;100666.33;;;10.60
34023;BMP280;20673;48.980;8.138;2022-10-17T04:51:13;100663.97;;;10.61
34023;BMP280;20673;48.980;8.138;2022-10-17T04:53:42;100664.51;;;10.57
34023;BMP280;20673;48.980;8.138;2022-10-17T04:56:13;100667.26;;;10.54
34023;BMP280;20673;48.980;8.138;2022-10-17T04:58:41;100662.23;;;10.54
34023;BMP280;20673;48.980;8.138;2022-10-17T05:01:11;100662.45;;;10.53
34023;BMP280;20673;48.980;8.138;2022-10-17T05:03:38;100667.23;;;10.51
34023;BMP280;20673;48.980;8.138;2022-10-17T05:06:08;100664.71;;;10.51
34023;BMP280;20673;48.980;8.138;2022-10-17T05:08:36;100661.08;;;10.52
34023;BMP280;20673;48.980;8.138;2022-10-17T05:11:03;100660.40;;;10.52
34023;BMP280;20673;48.980;8.138;2022-10-17T05:13:31;100660.99;;;10.52
34023;BMP280;20673;48.980;8.138;2022-10-17T05:16:00;100663.33;;;10.50
34023;BMP280;20673;48.980;8.138;2022-10-17T05:18:27;100664.91;;;10.55
34023;BMP280;20673;48.980;8.138;2022-10-17T05:20:54;100664.37;;;10.57
34023;BMP280;20673;48.980;8.138;2022-10-17T05:23:20;100669.83;;;10.57
34023;BMP280;20673;48.980;8.138;2022-10-17T05:25:46;100669.90;;;10.55
34023;BMP280;20673;48.980;8.138;2022-10-17T05:28:12;100674.28;;;10.54
34023;BMP280;20673;48.980;8.138;2022-10-17T05:30:39;100680.86;;;10.56
34023;BMP280;20673;48.980;8.138;2022-10-17T05:33:05;100679.59;;;10.55
34023;BMP280;20673;48.980;8.138;2022-10-17T05:35:31;100681.18;;;10.52
34023;BMP280;20673;48.980;8.138;2022-10-17T05:37:57;100682.26;;;10.50
34023;BMP280;20673;48.980;8.138;2022-10-17T05:40:25;100692.47;;;10.48
34023;BMP280;20673;48.980;8.138;2022-10-17T05:42:51;100696.11;;;10.47
34023;BMP280;20673;48.980;8.138;2022-10-17T05:45:18;100709.04;;;10.45
34023;BMP280;20673;48.980;8.138;2022-10-17T05:47:44;100710.18;;;10.42
34023;BMP280;20673;48.980;8.138;2022-10-17T05:50:10;100709.72;;;10.40
34023;BMP280;20673;48.980;8.138;2022-10-17T05:52:36;100715.58;;;10.38
34023;BMP280;20673;48.980;8.138;2022-10-17T05:55:04;100713.53;;;10.36
34023;BMP280;20673;48.980;8.138;2022-10-17T05:57:31;100713.90;;;10.32
34023;BMP280;20673;48.980;8.138;2022-10-17T05:59:57;100718.47;;;10.32
34023;BMP280;20673;48.980;8.138;2022-10-17T06:02:23;100720.39;;;10.31
34023;BMP280;20673;48.980;8.138;2022-10-17T06:04:49;100722.18;;;10.29
34023;BMP280;20673;48.980;8.138;2022-10-17T06:07:16;100718.93;;;10.33
34023;BMP280;20673;48.980;8.138;2022-10-17T06:09:42;100717.09;;;10.33
34023;BMP280;20673;48.980;8.138;2022-10-17T06:12:08;100721.08;;;10.33
34023;BMP280;20673;48.980;8.138;2022-10-17T06:14:35;100725.69;;;10.34
34023;BMP280;20673;48.980;8.138;2022-10-17T06:17:01;100727.15;;;10.37
34023;BMP280;20673;48.980;8.138;2022-10-17T06:19:28;100727.48;;;10.40
34023;BMP280;20673;48.980;8.138;2022-10-17T06:21:54;100735.14;;;10.43
34023;BMP280;20673;48.980;8.138;2022-10-17T06:24:20;100736.40;;;10.47
34023;BMP280;20673;48.980;8.138;2022-10-17T06:26:46;100743.34;;;10.52
34023;BMP280;20673;48.980;8.138;2022-10-17T06:29:15;100750.11;;;10.59
34023;BMP280;20673;48.980;8.138;2022-10-17T06:31:41;100750.08;;;10.65
34023;BMP280;20673;48.980;8.138;2022-10-17T06:34:07;100750.78;;;10.72
34023;BMP280;20673;48.980;8.138;2022-10-17T06:36:34;100750.61;;;10.81
34023;BMP280;20673;48.980;8.138;2022-10-17T06:39:00;100756.06;;;10.88
34023;BMP280;20673;48.980;8.138;2022-10-17T06:41:26;100747.68;;;10.96
34023;BMP280;20673;48.980;8.138;2022-10-17T06:43:53;100749.50;;;11.02
34023;BMP280;20673;48.980;8.138;2022-10-17T06:46:19;100756.81;;;11.11
34023;BMP280;20673;48.980;8.138;2022-10-17T06:48:46;100760.29;;;11.26
34023;BMP280;20673;48.980;8.138;2022-10-17T06:51:12;100763.33;;;11.36
34023;BMP280;20673;48.980;8.138;2022-10-17T06:53:39;100767.58;;;11.47
34023;BMP280;20673;48.980;8.138;2022-10-17T06:56:07;100765.29;;;11.53
34023;BMP280;20673;48.980;8.138;2022-10-17T06:58:37;100764.26;;;11.60
34023;BMP280;20673;48.980;8.138;2022-10-17T07:01:10;100764.22;;;11.71
34023;BMP280;20673;48.980;8.138;2022-10-17T07:03:38;100767.10;;;11.82
34023;BMP280;20673;48.980;8.138;2022-10-17T07:06:06;100767.13;;;11.88
34023;BMP280;20673;48.980;8.138;2022-10-17T07:08:32;100778.53;;;11.96
34023;BMP280;20673;48.980;8.138;2022-10-17T07:11:10;100784.93;;;12.04
34023;BMP280;20673;48.980;8.138;2022-10-17T07:13:36;100790.11;;;12.24
34023;BMP280;20673;48.980;8.138;2022-10-17T07:16:03;100795.93;;;12.40
34023;BMP280;20673;48.980;8.138;2022-10-17T07:18:30;100790.78;;;12.54
34023;BMP280;20673;48.980;8.138;2022-10-17T07:20:56;100797.05;;;12.68
34023;BMP280;20673;48.980;8.138;2022-10-17T07:23:23;100800.24;;;12.86
34023;BMP280;20673;48.980;8.138;2022-10-17T07:25:49;100801.50;;;13.06
34023;BMP280;20673;48.980;8.138;2022-10-17T07:28:16;100798.23;;;13.20
34023;BMP280;20673;48.980;8.138;2022-10-17T07:30:42;100790.68;;;13.36
34023;BMP280;20673;48.980;8.138;2022-10-17T07:33:09;100793.61;;;13.53
34023;BMP280;20673;48.980;8.138;2022-10-17T07:35:38;100798.06;;;13.68
34023;BMP280;20673;48.980;8.138;2022-10-17T07:38:07;100798.65;;;13.87
34023;BMP280;20673;48.980;8.138;2022-10-17T07:40:34;100806.68;;;14.16
34023;BMP280;20673;48.980;8.138;2022-10-17T07:43:00;100806.97;;;14.30
34023;BMP280;20673;48.980;8.138;2022-10-17T07:45:26;100808.26;;;14.48
34023;BMP280;20673;48.980;8.138;2022-10-17T07:47:56;100809.30;;;14.67
34023;BMP280;20673;48.980;8.138;2022-10-17T07:50:23;100811.28;;;14.84
34023;BMP280;20673;48.980;8.138;2022-10-17T07:52:50;100812.50;;;15.06
34023;BMP280;20673;48.980;8.138;2022-10-17T07:55:16;100823.53;;;15.21
34023;BMP280;20673;48.980;8.138;2022-10-17T07:57:43;100814.58;;;15.59
34023;BMP280;20673;48.980;8.138;2022-10-17T08:00:10;100820.28;;;15.92
34023;BMP280;20673;48.980;8.138;2022-10-17T08:02:36;100817.61;;;16.18
34023;BMP280;20673;48.980;8.138;2022-10-17T08:05:03;100817.89;;;16.49
34023;BMP280;20673;48.980;8.138;2022-10-17T08:07:30;100812.51;;;16.87
34023;BMP280;20673;48.980;8.138;2022-10-17T08:09:56;100809.86;;;17.09
34023;BMP280;20673;48.980;8.138;2022-10-17T08:12:23;100818.72;;;17.40
34023;BMP280;20673;48.980;8.138;2022-10-17T08:14:50;100818.66;;;17.58
34023;BMP280;20673;48.980;8.138;2022-10-17T08:17:17;100823.03;;;17.71
34023;BMP280;20673;48.980;8.138;2022-10-17T08:19:43;100828.79;;;17.93
34023;BMP280;20673;48.980;8.138;2022-10-17T08:22:09;100822.82;;;18.28
34023;BMP280;20673;48.980;8.138;2022-10-17T08:24:35;100824.58;;;18.58
34023;BMP280;20673;48.980;8.138;2022-10-17T08:27:02;100828.56;;;18.80
34023;BMP280;20673;48.980;8.138;2022-10-17T08:29:29;100829.70;;;19.01
34023;BMP280;20673;48.980;8.138;2022-10-17T08:31:57;100838.15;;;19.28
34023;BMP280;20673;48.980;8.138;2022-10-17T08:34:23;100830.81;;;19.51
34023;BMP280;20673;48.980;8.138;2022-10-17T08:36:49;100831.26;;;19.48
34023;BMP280;20673;48.980;8.138;2022-10-17T08:39:16;100830.47;;;19.74
34023;BMP280;20673;48.980;8.138;2022-10-17T08:42:33;100829.29;;;19.74
34023;BMP280;20673;48.980;8.138;2022-10-17T08:48:08;100832.50;;;20.03
34023;BMP280;20673;48.980;8.138;2022-10-17T08:50:53;100833.56;;;20.11
34023;BMP280;20673;48.980;8.138;2022-10-17T08:53:37;100841.39;;;20.27
34023;BMP280;20673;48.980;8.138;2022-10-17T08:56:17;100836.73;;;20.28
34023;BMP280;20673;48.980;8.138;2022-10-17T08:58:37;100838.40;;;20.32
34023;BMP280;20673;48.980;8.138;2022-10-17T09:06:56;100836.14;;;20.57
34023;BMP280;20673;48.980;8.138;2022-10-17T09:12:36;100839.93;;;20.83
34023;BMP280;20673;48.980;8.138;2022-10-17T09:15:10;100837.50;;;21.35
34023;BMP280;20673;48.980;8.138;2022-10-17T09:17:59;100834.12;;;21.80
34023;BMP280;20673;48.980;8.138;2022-10-17T09:20:30;100834.06;;;22.13
34023;BMP280;20673;48.980;8.138;2022-10-17T09:23:21;100834.53;;;22.26
34023;BMP280;20673;48.980;8.138;2022-10-17T09:25:58;100837.86;;;22.20
34023;BMP280;20673;48.980;8.138;2022-10-17T09:28:35;100832.48;;;22.60
34023;BMP280;20673;48.980;8.138;2022-10-17T09:33:43;100838.04;;;22.99
34023;BMP280;20673;48.980;8.138;2022-10-17T09:36:28;100836.11;;;23.70
34023;BMP280;20673;48.980;8.138;2022-10-17T09:38:58;100836.18;;;23.99
34023;BMP280;20673;48.980;8.138;2022-10-17T09:41:33;100845.15;;;24.70
34023;BMP280;20673;48.980;8.138;2022-10-17T09:44:19;100845.95;;;24.83
34023;BMP280;20673;48.980;8.138;2022-10-17T09:47:05;100851.23;;;25.14
34023;BMP280;20673;48.980;8.138;2022-10-17T09:49:37;100853.90;;;25.38
34023;BMP280;20673;48.980;8.138;2022-10-17T09:52:48;100845.12;;;25.74
34023;BMP280;20673;48.980;8.138;2022-10-17T09:54:50;100845.84;;;26.05
34023;BMP280;20673;48.980;8.138;2022-10-17T09:57:19;100849.28;;;26.12
34023;BMP280;20673;48.980;8.138;2022-10-17T10:00:03;100842.55;;;26.54
34023;BMP280;20673;48.980;8.138;2022-10-17T10:02:30;100840.99;;;26.46
34023;BMP280;20673;48.980;8.138;2022-10-17T10:05:15;100849.00;;;26.00
34023;BMP280;20673;48.980;8.138;2022-10-17T10:07:59;100847.70;;;26.29
34023;BMP280;20673;48.980;8.138;2022-10-17T10:10:27;100848.33;;;26.28
34023;BMP280;20673;48.980;8.138;2022-10-17T10:13:17;100853.14;;;26.30
34023;BMP280;20673;48.980;8.138;2022-10-17T10:15:49;100857.09;;;25.89
34023;BMP280;20673;48.980;8.138;2022-10-17T10:18:34;100859.15;;;25.99
34023;BMP280;20673;48.980;8.138;2022-10-17T10:23:42;100850.59;;;26.50
34023;BMP280;20673;48.980;8.138;2022-10-17T10:26:20;100852.97;;;26.64
34023;BMP280;20673;48.980;8.138;2022-10-17T10:28:54;100851.64;;;26.61
34023;BMP280;20673;48.980;8.138;2022-10-17T10:31:35;100841.78;;;27.12
34023;BMP280;20673;48.980;8.138;2022-10-17T10:34:24;100846.91;;;27.00
34023;BMP280;20673;48.980;8.138;2022-10-17T10:37:02;100849.54;;;27.29
34023;BMP280;20673;48.980;8.138;2022-10-17T10:39:51;100855.29;;;27.23
34023;BMP280;20673;48.980;8.138;2022-10-17T10:42:31;100851.58;;;27.48
34023;BMP280;20673;48.980;8.138;2022-10-17T10:45:19;100858.36;;;27.63
34023;BMP280;20673;48.980;8.138;2022-10-17T10:48:02;100858.17;;;28.01
34023;BMP280;20673;48.980;8.138;2022-10-17T10:51:04;100857.25;;;28.06
34023;BMP280;20673;48.980;8.138;2022-10-17T10:54:38;100850.45;;;28.52
34023;BMP280;20673;48.980;8.138;2022-10-17T10:56:51;100848.43;;;28.63
34023;BMP280;20673;48.980;8.138;2022-10-17T11:00:03;100861.68;;;27.74
34023;BMP280;20673;48.980;8.138;2022-10-17T11:02:46;100855.90;;;28.32
34023;BMP280;20673;48.980;8.138;2022-10-17T11:05:49;100861.81;;;28.22
34023;BMP280;20673;48.980;8.138;2022-10-17T11:11:30;100869.76;;;27.46
34023;BMP280;20673;48.980;8.138;2022-10-17T11:17:12;100868.40;;;27.82
34023;BMP280;20673;48.980;8.138;2022-10-17T11:19:46;100863.70;;;28.05
34023;BMP280;20673;48.980;8.138;2022-10-17T11:22:27;100867.78;;;28.14
34023;BMP280;20673;48.980;8.138;2022-10-17T11:27:38;100862.56;;;28.36
34023;BMP280;20673;48.980;8.138;2022-10-17T11:30:05;100860.39;;;28.58
34023;BMP280;20673;48.980;8.138;2022-10-17T11:32:44;100868.30;;;28.22
34023;BMP280;20673;48.980;8.138;2022-10-17T11:35:34;100861.40;;;28.23
34023;BMP280;20673;48.980;8.138;2022-10-17T11:38:37;100865.15;;;28.16
34023;BMP280;20673;48.980;8.138;2022-10-17T11:41:05;100872.47;;;27.68
34023;BMP280;20673;48.980;8.138;2022-10-17T11:43:50;100871.83;;;27.56
34023;BMP280;20673;48.980;8.138;2022-10-17T11:46:24;100868.23;;;27.42
34023;BMP280;20673;48.980;8.138;2022-10-17T11:49:17;100875.04;;;27.72
34023;BMP280;20673;48.980;8.138;2022-10-17T11:51:59;100869.47;;;27.43
34023;BMP280;20673;48.980;8.138;2022-10-17T11:54:38;100863.72;;;27.62
34023;BMP280;20673;48.980;8.138;2022-10-17T12:03:51;100852.04;;;27.29
34023;BMP280;20673;48.980;8.138;2022-10-17T12:12:08;100837.62;;;26.95
34023;BMP280;20673;48.980;8.138;2022-10-17T12:25:54;100834.31;;;27.84
34023;BMP280;20673;48.980;8.138;2022-10-17T12:28:40;100833.25;;;28.15
34023;BMP280;20673;48.980;8.138;2022-10-17T12:33:58;100826.51;;;28.58
34023;BMP280;20673;48.980;8.138;2022-10-17T12:49:48;100825.90;;;28.49
34023;BMP280;20673;48.980;8.138;2022-10-17T12:55:12;100832.59;;;27.98
34023;BMP280;20673;48.980;8.138;2022-10-17T12:58:09;100828.42;;;27.76
34023;BMP280;20673;48.980;8.138;2022-10-17T13:00:53;100825.95;;;28.12
34023;BMP280;20673;48.980;8.138;2022-10-17T13:03:25;100833.00;;;27.65
34023;BMP280;20673;48.980;8.138;2022-10-17T13:06:02;100826.77;;;28.24
34023;BMP280;20673;48.980;8.138;2022-10-17T13:08:36;100829.70;;;28.57
34023;BMP280;20673;48.980;8.138;2022-10-17T13:11:04;100824.33;;;28.72
34023;BMP280;20673;48.980;8.138;2022-10-17T13:13:51;100824.20;;;28.41
34023;BMP280;20673;48.980;8.138;2022-10-17T13:16:36;100825.65;;;28.44
34023;BMP280;20673;48.980;8.138;2022-10-17T13:19:13;100832.64;;;27.89
34023;BMP280;20673;48.980;8.138;2022-10-17T13:21:52;100827.22;;;28.11
34023;BMP280;20673;48.980;8.138;2022-10-17T13:24:32;100822.98;;;28.35
34023;BMP280;20673;48.980;8.138;2022-10-17T13:26:59;100827.11;;;28.42
34023;BMP280;20673;48.980;8.138;2022-10-17T13:29:27;100827.66;;;28.04
34023;BMP280;20673;48.980;8.138;2022-10-17T13:32:01;100834.52;;;28.39
34023;BMP280;20673;48.980;8.138;2022-10-17T13:34:30;100837.11;;;28.62
34023;BMP280;20673;48.980;8.138;2022-10-17T13:37:09;100834.22;;;28.70
34023;BMP280;20673;48.980;8.138;2022-10-17T13:39:43;100833.16;;;28.73
34023;BMP280;20673;48.980;8.138;2022-10-17T13:44:49;100828.98;;;28.60
34023;BMP280;20673;48.980;8.138;2022-10-17T13:47:26;100829.00;;;28.37
34023;BMP280;20673;48.980;8.138;2022-10-17T13:49:53;100829.14;;;28.54
34023;BMP280;20673;48.980;8.138;2022-10-17T13:52:24;100829.84;;;28.86
34023;BMP280;20673;48.980;8.138;2022-10-17T13:54:53;100825.76;;;29.05
34023;BMP280;20673;48.980;8.138;2022-10-17T13:57:30;100831.45;;;28.85
34023;BMP280;20673;48.980;8.138;2022-10-17T14:00:00;100829.82;;;28.94
34023;BMP280;20673;48.980;8.138;2022-10-17T14:02:30;100826.09;;;28.96
34023;BMP280;20673;48.980;8.138;2022-10-17T14:05:11;100824.48;;;28.78
34023;BMP280;20673;48.980;8.138;2022-10-17T14:07:45;100825.65;;;28.81
34023;BMP280;20673;48.980;8.138;2022-10-17T14:10:32;100821.68;;;29.03
34023;BMP280;20673;48.980;8.138;2022-10-17T14:13:00;100827.95;;;29.13
34023;BMP280;20673;48.980;8.138;2022-10-17T14:15:30;100827.37;;;29.08
34023;BMP280;20673;48.980;8.138;2022-10-17T14:18:04;100835.36;;;28.95
34023;BMP280;20673;48.980;8.138;2022-10-17T14:20:32;100831.81;;;29.00
34023;BMP280;20673;48.980;8.138;2022-10-17T14:22:59;100832.33;;;28.98
34023;BMP280;20673;48.980;8.138;2022-10-17T14:25:38;100831.93;;;29.10
34023;BMP280;20673;48.980;8.138;2022-10-17T14:28:14;100834.68;;;28.64
34023;BMP280;20673;48.980;8.138;2022-10-17T14:30:48;100833.65;;;28.89
34023;BMP280;20673;48.980;8.138;2022-10-17T14:33:29;100835.97;;;29.11
34023;BMP280;20673;48.980;8.138;2022-10-17T14:35:59;100834.72;;;29.01
34023;BMP280;20673;48.980;8.138;2022-10-17T14:38:27;100833.27;;;29.20
34023;BMP280;20673;48.980;8.138;2022-10-17T14:41:09;100837.34;;;29.19
34023;BMP280;20673;48.980;8.138;2022-10-17T14:43:35;100835.61;;;29.03
34023;BMP280;20673;48.980;8.138;2022-10-17T14:46:02;100837.92;;;29.10
34023;BMP280;20673;48.980;8.138;2022-10-17T14:48:29;100842.42;;;29.29
34023;BMP280;20673;48.980;8.138;2022-10-17T14:51:08;100845.06;;;29.42
34023;BMP280;20673;48.980;8.138;2022-10-17T14:53:35;100847.42;;;29.41
34023;BMP280;20673;48.980;8.138;2022-10-17T14:56:21;100848.89;;;29.50
34023;BMP280;20673;48.980;8.138;2022-10-17T14:58:48;100848.68;;;29.50
34023;BMP280;20673;48.980;8.138;2022-10-17T15:01:15;100853.28;;;29.53
34023;BMP280;20673;48.980;8.138;2022-10-17T15:03:41;100854.09;;;29.66
34023;BMP280;20673;48.980;8.138;2022-10-17T15:06:32;100853.03;;;29.54
34023;BMP280;20673;48.980;8.138;2022-10-17T15:08:56;100852.83;;;29.37
34023;BMP280;20673;48.980;8.138;2022-10-17T15:11:23;100854.48;;;29.49
34023;BMP280;20673;48.980;8.138;2022-10-17T15:13:50;100859.97;;;29.15
34023;BMP280;20673;48.980;8.138;2022-10-17T15:16:24;100863.59;;;29.01
34023;BMP280;20673;48.980;8.138;2022-10-17T15:18:52;100864.36;;;28.82
34023;BMP280;20673;48.980;8.138;2022-10-17T15:21:21;100864.22;;;28.59
34023;BMP280;20673;48.980;8.138;2022-10-17T15:23:47;100865.42;;;28.67
34023;BMP280;20673;48.980;8.138;2022-10-17T15:26:19;100869.04;;;28.18
34023;BMP280;20673;48.980;8.138;2022-10-17T15:28:46;100868.84;;;27.96
34023;BMP280;20673;48.980;8.138;2022-10-17T15:31:17;100868.67;;;27.76
34023;BMP280;20673;48.980;8.138;2022-10-17T15:33:45;100877.12;;;27.29
34023;BMP280;20673;48.980;8.138;2022-10-17T15:36:31;100879.87;;;26.68
34023;BMP280;20673;48.980;8.138;2022-10-17T15:39:00;100874.84;;;26.45
34023;BMP280;20673;48.980;8.138;2022-10-17T15:41:29;100879.37;;;26.02
34023;BMP280;20673;48.980;8.138;2022-10-17T15:43:56;100880.34;;;25.53
34023;BMP280;20673;48.980;8.138;2022-10-17T15:46:32;100879.00;;;25.27
34023;BMP280;20673;48.980;8.138;2022-10-17T15:49:02;100876.85;;;25.06
34023;BMP280;20673;48.980;8.138;2022-10-17T15:51:28;100872.27;;;24.76
34023;BMP280;20673;48.980;8.138;2022-10-17T15:53:54;100872.45;;;24.52
34023;BMP280;20673;48.980;8.138;2022-10-17T15:56:30;100870.75;;;24.18
34023;BMP280;20673;48.980;8.138;2022-10-17T15:58:57;100878.70;;;23.86